Houlton, ME (04761)

1:03 AM EST on February 10, 2016 (GMT -0500)
Sunnyside Family Farm - Ferme Ensoleillee Familiale | | Change Station
CLOSE
Current Station
Personal Weather Station
Location: Linneus, ME
Elevation: 594 ft
Nearby Weather Stations

Elev 594 ft 46.07 °N, 67.99 °W | Updated 2 minutes ago

Overcast
Overcast
16.1 °F
Feels Like 16 °F
N
0.0
Wind Variable Wind from NW
Gusts 1.0 mph

Today
High -- | Low -- °F
--% Chance of Precip.
Yesterday
High -- | Low -- °F
Precip. -- in
Pressure 29.55 in
Visibility 8.0 miles
Clouds Overcast 2000 ft
Windchill 16 °F
Dew Point 13 °F
Humidity 87%
Rainfall 0.00 in
Snow Depth Not available.
6:43 AM 4:49 PM
Waxing Crescent, 4% visible
METAR KHUL 100553Z AUTO 00000KT 8SM OVC020 M09/M11 A2952 RMK AO2 SLP006 60000 T10891106 11078 21094 55005
Pressure 29.55 in
Visibility 8.0 miles
Clouds Overcast 2000 ft
Windchill 16 °F
Dew Point 13 °F
Humidity 87%
Rainfall 0.00 in
Snow Depth Not available.
6:43 AM 4:49 PM
Waxing Crescent, 4% visible
METAR KHUL 100553Z AUTO 00000KT 8SM OVC020 M09/M11 A2952 RMK AO2 SLP006 60000 T10891106 11078 21094 55005

10-Day Weather Forecast

Almanac

Astronomy

Feb. 10, 2016 Rise Set
Actual Time
Civil Twilight
Nautical Twilight
Astronomical Twilight
Moon
Length of Visible Light
Length of Day
Tomorrow will be .
, % of the Moon is Illuminated

Today's Extremes

State Highs State Lows

Community

WunderPhotos

Upload Photos

1,891,824 photos uploaded!

WunderBlog® & News

Nearby

Air Quality

  Air Quality AQ Index Pollutant
Not available.

Snow Depth

Station Depth Elevation

Earthquake Activity

City Distance Mag. Time & Date
Minimum magnitude displayed is 2.5.

Coastal Water Temperatures

Place Temperature

Stations

Nearby Weather Stations

Station Location Temp. Windchill Dew Point Humidity Wind Precip. Elev Updated Type
                   

Watches & Warnings

There are currently no watches in effect.